Terminal Aerodrome Forecast
Issued by NWS

Home | Current Version | Previous Version | Text Only | Print | Product List | Glossary On
Versions: 1 2 3 4 5 6 7 8 9 10 11 12
000
FTUS44 KOUN 270553
TAFGAG
TAF
KGAG 270553Z 2706/2806 19010KT P6SM BKN120
     FM270900 35010KT P6SM SCT040 BKN100
      TEMPO 2714/2717 BKN020=

USA.gov is the U.S. government's official web portal to all federal, state and local government web resources and services.